Time;durP1;ratioP1;P1;durP2;ratioP2;P2;SDS_P1;SDS_P2;PMS_P1;PMS_P2;Temp;Humidity;BMP_temperature;BMP_pressure;BME280_temperature;BME280_humidity;BME280_pressure;Samples;Min_cycle;Max_cycle;Signal;HPM_P1;HPM_P2
2023/09/06 00:01:49;;;;;;;38.55;32.30;;;;;;;;;;5037913;28;20114;-76
2023/09/06 00:04:15;;;;;;;37.40;33.08;;;;;;;;;;5022587;28;20057;-76
2023/09/06 00:06:41;;;;;;;38.40;34.22;;;;;;;;;;5021015;28;20104;-76
2023/09/06 00:09:10;;;;;;;38.17;34.05;;;;;;;;;;5015983;28;20037;-76
2023/09/06 00:11:36;;;;;;;38.67;34.10;;;;;;;;;;5002576;28;20068;-76
2023/09/06 00:14:03;;;;;;;37.42;33.35;;;;;;;;;;5024953;28;20059;-76
2023/09/06 00:16:29;;;;;;;37.40;32.75;;;;;;;;;;5017062;28;20049;-76
2023/09/06 00:18:59;;;;;;;39.42;33.60;;;;;;;;;;5036838;28;20036;-76
2023/09/06 00:21:26;;;;;;;39.28;34.33;;;;;;;;;;5034919;28;20159;-76
2023/09/06 00:23:53;;;;;;;37.45;33.53;;;;;;;;;;5017132;28;20048;-75
2023/09/06 00:26:19;;;;;;;40.08;34.67;;;;;;;;;;5033227;28;21622;-76
2023/09/06 00:28:45;;;;;;;38.22;33.22;;;;;;;;;;5036445;28;20049;-76
2023/09/06 00:31:12;;;;;;;35.75;31.98;;;;;;;;;;5017410;28;20055;-76
2023/09/06 00:33:38;;;;;;;39.30;32.80;;;;;;;;;;5034734;28;20394;-75
2023/09/06 00:36:06;;;;;;;37.30;33.03;;;;;;;;;;5019627;28;20637;-75
2023/09/06 00:38:32;;;;;;;39.30;33.28;;;;;;;;;;5014169;28;22300;-76
2023/09/06 00:40:58;;;;;;;36.50;32.38;;;;;;;;;;5016149;28;20053;-75
2023/09/06 00:43:24;;;;;;;37.63;33.60;;;;;;;;;;5018509;28;20048;-75
2023/09/06 00:45:51;;;;;;;41.17;33.60;;;;;;;;;;5018254;28;20511;-75
2023/09/06 00:48:19;;;;;;;38.92;33.25;;;;;;;;;;5035937;28;21709;-75
2023/09/06 00:50:50;;;;;;;39.80;32.55;;;;;;;;;;5015116;28;20278;-75
2023/09/06 00:53:17;;;;;;;40.42;34.25;;;;;;;;;;5012789;28;20041;-75
2023/09/06 00:55:44;;;;;;;37.70;33.72;;;;;;;;;;5015848;28;20045;-75
2023/09/06 00:58:15;;;;;;;39.05;33.30;;;;;;;;;;5016466;28;20052;-75
2023/09/06 01:00:42;;;;;;;40.00;32.63;;;;;;;;;;5035282;28;20040;-76
2023/09/06 01:03:08;;;;;;;37.63;33.50;;;;;;;;;;5018612;28;20416;-76
2023/09/06 01:05:40;;;;;;;40.13;34.92;;;;;;;;;;5034484;28;20047;-74
2023/09/06 01:08:07;;;;;;;40.05;33.33;;;;;;;;;;5013936;28;20083;-74
2023/09/06 01:10:36;;;;;;;39.28;34.38;;;;;;;;;;5035438;28;20441;-75
2023/09/06 01:13:03;;;;;;;38.63;33.67;;;;;;;;;;5033502;28;20067;-75
2023/09/06 01:15:29;;;;;;;38.38;33.15;;;;;;;;;;5014001;28;20048;-75
2023/09/06 01:17:55;;;;;;;41.78;35.25;;;;;;;;;;5030772;28;20040;-75
2023/09/06 01:20:36;;;;;;;38.50;34.33;;;;;;;;;;4996968;28;20335;-75
2023/09/06 01:23:02;;;;;;;44.25;35.55;;;;;;;;;;5018147;28;20064;-76
2023/09/06 01:25:29;;;;;;;44.60;37.20;;;;;;;;;;5013222;28;20068;-76
2023/09/06 01:27:55;;;;;;;43.03;36.92;;;;;;;;;;5015105;28;20519;-76
2023/09/06 01:30:21;;;;;;;42.03;35.80;;;;;;;;;;5016621;28;20044;-75
2023/09/06 01:32:47;;;;;;;41.80;36.38;;;;;;;;;;5030195;28;20044;-75
2023/09/06 01:35:13;;;;;;;43.55;36.60;;;;;;;;;;5015570;28;20173;-75
2023/09/06 01:37:39;;;;;;;44.38;38.78;;;;;;;;;;5031553;28;20045;-75
2023/09/06 01:40:17;;;;;;;44.70;38.13;;;;;;;;;;4999714;28;20041;-75
2023/09/06 01:42:43;;;;;;;40.58;35.42;;;;;;;;;;5010124;28;20060;-75
2023/09/06 01:45:09;;;;;;;38.13;34.03;;;;;;;;;;5015721;28;20048;-75
2023/09/06 01:47:35;;;;;;;38.35;34.20;;;;;;;;;;4995843;28;20040;-75
2023/09/06 01:50:04;;;;;;;38.30;33.00;;;;;;;;;;5011079;28;20048;-75
2023/09/06 01:52:30;;;;;;;34.45;30.63;;;;;;;;;;5027999;28;20076;-75
2023/09/06 01:54:56;;;;;;;36.97;31.33;;;;;;;;;;5027675;28;20040;-77
2023/09/06 01:57:22;;;;;;;36.70;30.30;;;;;;;;;;5014594;28;20143;-75
2023/09/06 01:59:50;;;;;;;36.33;29.98;;;;;;;;;;5028696;28;20044;-75
2023/09/06 02:02:17;;;;;;;35.40;29.52;;;;;;;;;;5028297;28;20187;-75
2023/09/06 02:04:43;;;;;;;31.58;26.83;;;;;;;;;;5031372;28;20117;-75
2023/09/06 02:07:09;;;;;;;40.95;30.85;;;;;;;;;;5031828;28;20045;-75
2023/09/06 02:09:35;;;;;;;33.10;29.52;;;;;;;;;;5014341;28;21691;-75
2023/09/06 02:12:01;;;;;;;38.33;32.10;;;;;;;;;;5031641;28;21681;-75
2023/09/06 02:14:27;;;;;;;39.85;34.22;;;;;;;;;;5032846;28;20523;-75
2023/09/06 02:16:54;;;;;;;36.92;30.02;;;;;;;;;;5031944;28;20051;-75
2023/09/06 02:19:20;;;;;;;35.92;29.02;;;;;;;;;;5030014;28;20494;-73
2023/09/06 02:21:46;;;;;;;34.17;30.52;;;;;;;;;;5030919;28;20053;-75
2023/09/06 02:24:12;;;;;;;39.65;32.90;;;;;;;;;;5011577;28;20049;-75
2023/09/06 02:26:38;;;;;;;44.00;34.58;;;;;;;;;;5013438;28;20052;-75
2023/09/06 02:29:04;;;;;;;42.13;36.38;;;;;;;;;;5002994;28;20079;-76
2023/09/06 02:31:31;;;;;;;43.70;33.72;;;;;;;;;;5026230;28;20400;-75
2023/09/06 02:33:57;;;;;;;38.17;33.03;;;;;;;;;;5008361;28;20753;-75
2023/09/06 02:36:23;;;;;;;45.85;36.10;;;;;;;;;;5010087;28;20065;-75
2023/09/06 02:38:49;;;;;;;40.50;34.40;;;;;;;;;;5031331;28;20086;-75
2023/09/06 02:41:15;;;;;;;45.22;35.72;;;;;;;;;;5010957;28;20078;-75
2023/09/06 02:43:41;;;;;;;41.72;36.10;;;;;;;;;;5018282;28;20052;-75
2023/09/06 02:46:07;;;;;;;46.03;39.55;;;;;;;;;;5014729;28;20055;-74
2023/09/06 02:48:33;;;;;;;48.40;37.75;;;;;;;;;;5028924;28;20489;-75
2023/09/06 02:50:59;;;;;;;41.53;33.65;;;;;;;;;;5013813;28;21192;-75
2023/09/06 02:53:26;;;;;;;44.88;36.90;;;;;;;;;;5027582;28;20882;-75
2023/09/06 02:55:53;;;;;;;41.65;34.80;;;;;;;;;;5009810;28;20044;-75
2023/09/06 02:58:25;;;;;;;36.85;32.85;;;;;;;;;;5029419;28;20055;-75
2023/09/06 03:00:57;;;;;;;42.35;34.42;;;;;;;;;;5026227;28;20588;-75
2023/09/06 03:03:26;;;;;;;37.58;31.55;;;;;;;;;;5009546;28;20128;-75
2023/09/06 03:05:56;;;;;;;39.53;33.97;;;;;;;;;;5012505;28;20044;-75
2023/09/06 03:08:25;;;;;;;41.22;32.58;;;;;;;;;;5010299;28;20041;-75
2023/09/06 03:10:52;;;;;;;41.70;34.22;;;;;;;;;;5031204;28;20049;-76
2023/09/06 03:13:20;;;;;;;40.03;34.22;;;;;;;;;;5030145;28;20496;-74
2023/09/06 03:15:51;;;;;;;40.67;32.83;;;;;;;;;;5031547;28;20475;-75
2023/09/06 03:18:17;;;;;;;39.95;33.35;;;;;;;;;;5029055;28;20087;-75
2023/09/06 03:20:43;;;;;;;35.13;31.00;;;;;;;;;;5010565;28;20048;-75
2023/09/06 03:23:19;;;;;;;37.35;31.58;;;;;;;;;;5029554;28;20079;-75
2023/09/06 03:25:45;;;;;;;36.42;29.42;;;;;;;;;;5013066;28;20067;-75
2023/09/06 03:28:12;;;;;;;33.58;29.83;;;;;;;;;;5028473;28;20052;-75
2023/09/06 03:30:41;;;;;;;33.75;29.08;;;;;;;;;;4994869;28;20201;-74
2023/09/06 03:33:08;;;;;;;35.60;29.65;;;;;;;;;;5009913;28;20146;-75
2023/09/06 03:35:34;;;;;;;33.70;29.85;;;;;;;;;;5026203;28;20174;-73
2023/09/06 03:38:02;;;;;;;36.30;30.42;;;;;;;;;;5033658;28;20492;-75
2023/09/06 03:40:37;;;;;;;41.08;30.52;;;;;;;;;;5031066;28;20048;-75
2023/09/06 03:43:19;;;;;;;32.53;29.02;;;;;;;;;;5015958;28;20645;-75
2023/09/06 03:45:51;;;;;;;32.65;29.30;;;;;;;;;;5016384;28;20049;-75
2023/09/06 03:48:22;;;;;;;37.08;29.55;;;;;;;;;;5032790;28;20047;-75
2023/09/06 03:50:51;;;;;;;37.05;29.13;;;;;;;;;;5011234;28;20580;-75
2023/09/06 03:53:17;;;;;;;33.83;28.67;;;;;;;;;;5011930;28;20051;-75
2023/09/06 03:55:44;;;;;;;32.80;28.20;;;;;;;;;;5013231;28;20044;-75
2023/09/06 03:58:10;;;;;;;33.33;28.13;;;;;;;;;;4997813;28;20040;-75
2023/09/06 04:00:39;;;;;;;33.80;27.55;;;;;;;;;;5028229;28;20135;-75
2023/09/06 04:03:07;;;;;;;28.88;25.73;;;;;;;;;;4993856;28;20045;-75
2023/09/06 04:05:34;;;;;;;35.28;26.75;;;;;;;;;;5027677;28;20056;-75
2023/09/06 04:08:07;;;;;;;30.95;25.08;;;;;;;;;;5008471;28;20135;-75
2023/09/06 04:10:40;;;;;;;30.15;25.13;;;;;;;;;;5033829;28;20709;-76
2023/09/06 04:13:07;;;;;;;32.80;25.58;;;;;;;;;;5016836;28;20047;-75
2023/09/06 04:15:37;;;;;;;27.40;24.63;;;;;;;;;;5009128;28;20049;-75
2023/09/06 04:18:09;;;;;;;31.60;26.00;;;;;;;;;;5012163;28;20044;-74
2023/09/06 04:20:36;;;;;;;31.67;27.50;;;;;;;;;;5031698;28;20131;-74
2023/09/06 04:23:06;;;;;;;38.00;28.45;;;;;;;;;;5011978;28;20102;-74
2023/09/06 04:25:33;;;;;;;32.08;27.63;;;;;;;;;;5030342;28;20045;-76
2023/09/06 04:27:59;;;;;;;34.70;27.23;;;;;;;;;;5011197;28;20052;-75
2023/09/06 04:30:32;;;;;;;31.23;27.67;;;;;;;;;;4999554;28;20055;-75
2023/09/06 04:32:58;;;;;;;30.10;26.90;;;;;;;;;;5015654;28;20091;-75
2023/09/06 04:35:42;;;;;;;30.60;27.27;;;;;;;;;;5014716;28;20329;-75
2023/09/06 04:38:09;;;;;;;30.08;26.33;;;;;;;;;;5036575;28;20056;-75
2023/09/06 04:40:35;;;;;;;28.02;24.10;;;;;;;;;;5019367;28;20087;-75
2023/09/06 04:43:04;;;;;;;26.05;21.73;;;;;;;;;;5039510;28;20057;-75
2023/09/06 04:45:30;;;;;;;23.88;19.55;;;;;;;;;;5024303;28;20063;-75
2023/09/06 04:47:56;;;;;;;20.42;18.40;;;;;;;;;;5012737;28;20048;-75
2023/09/06 04:50:24;;;;;;;18.25;15.77;;;;;;;;;;5040537;28;20463;-75
2023/09/06 04:52:53;;;;;;;17.45;15.38;;;;;;;;;;5038708;28;20052;-74
2023/09/06 04:55:20;;;;;;;17.52;13.88;;;;;;;;;;5037348;28;20040;-74
2023/09/06 04:57:47;;;;;;;18.33;12.52;;;;;;;;;;4988808;28;20048;-75
2023/09/06 05:02:43;;;;;;;12.98;11.18;;;;;;;;;;5017346;28;20040;-75
2023/09/06 05:05:09;;;;;;;13.32;10.25;;;;;;;;;;5037090;28;20463;-75
2023/09/06 05:07:36;;;;;;;10.85;9.77;;;;;;;;;;5035320;28;20033;-75
2023/09/06 05:10:03;;;;;;;12.30;10.10;;;;;;;;;;5001128;28;20675;-75
2023/09/06 05:12:29;;;;;;;13.95;9.90;;;;;;;;;;5013806;28;20048;-75
2023/09/06 05:14:55;;;;;;;10.40;9.38;;;;;;;;;;5032641;28;20539;-76
2023/09/06 05:17:23;;;;;;;14.07;9.65;;;;;;;;;;5016660;28;20692;-75
2023/09/06 05:19:50;;;;;;;11.55;9.73;;;;;;;;;;5035293;28;20412;-76
2023/09/06 05:22:17;;;;;;;14.90;9.35;;;;;;;;;;5017849;28;20036;-75
2023/09/06 05:24:43;;;;;;;19.70;8.48;;;;;;;;;;5032937;28;20048;-74
2023/09/06 05:27:10;;;;;;;14.07;9.73;;;;;;;;;;5030898;28;20079;-76
2023/09/06 05:29:36;;;;;;;11.27;8.55;;;;;;;;;;5018122;28;20051;-76
2023/09/06 05:32:03;;;;;;;11.35;8.90;;;;;;;;;;5015029;28;20036;-75
2023/09/06 05:34:30;;;;;;;13.95;7.90;;;;;;;;;;5033508;28;20064;-75
2023/09/06 05:36:56;;;;;;;9.35;8.02;;;;;;;;;;5036170;28;20532;-75
2023/09/06 05:39:23;;;;;;;15.23;8.00;;;;;;;;;;5016385;28;20052;-75
2023/09/06 05:41:50;;;;;;;18.98;8.00;;;;;;;;;;5016773;28;20122;-75
2023/09/06 05:44:19;;;;;;;11.23;8.20;;;;;;;;;;5034331;28;20048;-75
2023/09/06 05:46:45;;;;;;;15.57;7.13;;;;;;;;;;5003865;28;20139;-75
2023/09/06 05:49:11;;;;;;;12.93;7.97;;;;;;;;;;5034150;28;20052;-75
2023/09/06 05:51:37;;;;;;;10.90;8.10;;;;;;;;;;5017727;28;20063;-75
2023/09/06 05:54:04;;;;;;;9.30;8.02;;;;;;;;;;5032884;28;20041;-75
2023/09/06 05:56:30;;;;;;;16.88;8.25;;;;;;;;;;5035975;28;20516;-76
2023/09/06 05:58:56;;;;;;;10.35;8.05;;;;;;;;;;5019435;28;20056;-76
2023/09/06 06:01:22;;;;;;;9.75;7.75;;;;;;;;;;5016873;28;20095;-76
2023/09/06 06:03:48;;;;;;;17.88;7.40;;;;;;;;;;5018734;28;20514;-76
2023/09/06 06:06:17;;;;;;;10.40;7.28;;;;;;;;;;5018779;28;20047;-76
2023/09/06 06:08:43;;;;;;;9.55;7.57;;;;;;;;;;5020976;28;20055;-76
2023/09/06 06:11:09;;;;;;;11.27;8.70;;;;;;;;;;5018715;28;20425;-76
2023/09/06 06:13:35;;;;;;;9.57;8.15;;;;;;;;;;5036062;28;20110;-70
2023/09/06 06:16:02;;;;;;;9.15;7.07;;;;;;;;;;5013919;28;20037;-70
2023/09/06 06:18:28;;;;;;;10.75;7.70;;;;;;;;;;5035294;28;20662;-71
2023/09/06 06:20:54;;;;;;;12.32;8.02;;;;;;;;;;5008463;28;20080;-70
2023/09/06 06:23:20;;;;;;;14.10;8.23;;;;;;;;;;5031171;28;20561;-70
2023/09/06 06:25:46;;;;;;;10.60;7.65;;;;;;;;;;5027441;28;20556;-70
2023/09/06 06:28:12;;;;;;;12.80;8.35;;;;;;;;;;5028291;28;20037;-70
2023/09/06 06:30:39;;;;;;;23.08;8.23;;;;;;;;;;5033230;28;20690;-70
2023/09/06 06:33:06;;;;;;;13.30;8.10;;;;;;;;;;5032448;28;20036;-75
2023/09/06 06:35:32;;;;;;;8.80;7.93;;;;;;;;;;5031530;28;20041;-70
2023/09/06 06:37:59;;;;;;;15.07;8.50;;;;;;;;;;5001780;28;20059;-70
2023/09/06 06:40:26;;;;;;;9.63;7.55;;;;;;;;;;5016707;28;20284;-70
2023/09/06 06:42:52;;;;;;;23.35;8.95;;;;;;;;;;5033598;28;20427;-71
2023/09/06 06:45:18;;;;;;;13.23;8.85;;;;;;;;;;5035098;28;20167;-71
2023/09/06 06:47:44;;;;;;;13.88;8.10;;;;;;;;;;5034765;28;20048;-70
2023/09/06 06:50:10;;;;;;;14.70;9.57;;;;;;;;;;5035846;28;20134;-70
2023/09/06 06:52:36;;;;;;;16.63;8.93;;;;;;;;;;5028349;28;20040;-70
2023/09/06 06:55:06;;;;;;;10.73;8.27;;;;;;;;;;5030767;28;20082;-70
2023/09/06 06:57:33;;;;;;;15.43;7.22;;;;;;;;;;5029832;28;20098;-70
2023/09/06 06:59:59;;;;;;;10.07;7.82;;;;;;;;;;5030130;28;20056;-71
2023/09/06 07:02:25;;;;;;;10.80;7.32;;;;;;;;;;5010910;28;20044;-70
2023/09/06 07:04:51;;;;;;;14.95;7.22;;;;;;;;;;5031970;28;20045;-71
2023/09/06 07:07:17;;;;;;;8.60;7.70;;;;;;;;;;5037224;28;21918;-71
2023/09/06 07:09:44;;;;;;;9.75;8.48;;;;;;;;;;5032483;28;20153;-70
2023/09/06 07:12:10;;;;;;;13.75;7.72;;;;;;;;;;5016908;28;20448;-70
2023/09/06 07:14:36;;;;;;;14.68;7.90;;;;;;;;;;5032227;28;20044;-71
2023/09/06 07:17:02;;;;;;;10.20;7.43;;;;;;;;;;5015843;28;20509;-72
2023/09/06 07:19:29;;;;;;;11.75;8.07;;;;;;;;;;5039949;28;20109;-73
2023/09/06 07:21:55;;;;;;;11.90;7.28;;;;;;;;;;5023301;28;20150;-73
2023/09/06 07:24:21;;;;;;;9.10;7.85;;;;;;;;;;5039524;28;20048;-73
2023/09/06 07:26:48;;;;;;;11.85;7.63;;;;;;;;;;5024715;28;20033;-72
2023/09/06 07:29:14;;;;;;;10.52;7.80;;;;;;;;;;5013980;28;20055;-73
2023/09/06 07:31:40;;;;;;;12.48;7.20;;;;;;;;;;5024318;28;20044;-73
2023/09/06 07:34:07;;;;;;;9.73;7.30;;;;;;;;;;5041288;28;20432;-73
2023/09/06 07:36:33;;;;;;;11.07;7.50;;;;;;;;;;5041759;28;20593;-73
2023/09/06 07:38:59;;;;;;;11.02;6.80;;;;;;;;;;5041294;28;20520;-72
2023/09/06 07:41:28;;;;;;;9.48;6.47;;;;;;;;;;5040674;28;20041;-72
2023/09/06 07:43:55;;;;;;;10.63;6.38;;;;;;;;;;5023921;28;20497;-72
2023/09/06 07:46:25;;;;;;;11.18;6.38;;;;;;;;;;5042347;28;20044;-72
2023/09/06 07:48:51;;;;;;;12.20;5.97;;;;;;;;;;5041597;28;20049;-72
2023/09/06 07:51:17;;;;;;;10.50;5.93;;;;;;;;;;5040665;28;20417;-72
2023/09/06 07:53:44;;;;;;;6.47;5.80;;;;;;;;;;5022155;28;20054;-72
2023/09/06 07:56:10;;;;;;;9.65;5.43;;;;;;;;;;5042356;28;20124;-71
2023/09/06 07:58:36;;;;;;;11.13;4.80;;;;;;;;;;5021780;28;20799;-71
2023/09/06 08:01:04;;;;;;;7.43;4.20;;;;;;;;;;5039479;28;20201;-71
2023/09/06 08:03:30;;;;;;;5.90;4.03;;;;;;;;;;5006444;28;20503;-71
2023/09/06 08:05:56;;;;;;;8.07;4.20;;;;;;;;;;5041786;28;20037;-72
2023/09/06 08:08:22;;;;;;;5.05;3.85;;;;;;;;;;5040551;28;20052;-71
2023/09/06 08:10:48;;;;;;;6.55;3.60;;;;;;;;;;5041750;28;20044;-71
2023/09/06 08:13:14;;;;;;;5.22;3.17;;;;;;;;;;5041368;28;20036;-71
2023/09/06 08:15:41;;;;;;;4.85;3.22;;;;;;;;;;5039468;28;20055;-72
2023/09/06 08:18:08;;;;;;;3.53;2.83;;;;;;;;;;5037958;28;20550;-80
2023/09/06 08:20:34;;;;;;;6.10;2.88;;;;;;;;;;5021923;28;20564;-78
2023/09/06 08:23:00;;;;;;;3.45;3.00;;;;;;;;;;5021736;28;20055;-78
2023/09/06 08:25:26;;;;;;;5.82;3.22;;;;;;;;;;5038420;28;20049;-79
2023/09/06 08:27:52;;;;;;;4.75;2.80;;;;;;;;;;5041289;28;20077;-73
2023/09/06 08:30:20;;;;;;;3.55;3.13;;;;;;;;;;5039044;28;20043;-73
2023/09/06 08:32:49;;;;;;;8.23;3.78;;;;;;;;;;5040575;28;20052;-73
2023/09/06 08:35:17;;;;;;;4.78;3.88;;;;;;;;;;5023066;28;20135;-74
2023/09/06 08:37:45;;;;;;;5.18;3.72;;;;;;;;;;5021954;28;20052;-73
2023/09/06 08:40:12;;;;;;;7.05;3.53;;;;;;;;;;5042108;28;20048;-74
2023/09/06 08:42:38;;;;;;;8.38;3.70;;;;;;;;;;5038820;28;20092;-74
2023/09/06 08:45:07;;;;;;;13.73;3.90;;;;;;;;;;5039900;28;20647;-74
2023/09/06 08:47:33;;;;;;;6.90;3.55;;;;;;;;;;5021299;28;20504;-73
2023/09/06 08:50:00;;;;;;;4.68;3.20;;;;;;;;;;5020437;28;20055;-73
2023/09/06 08:52:26;;;;;;;5.68;3.60;;;;;;;;;;5021282;28;20121;-73
2023/09/06 08:54:53;;;;;;;5.47;3.30;;;;;;;;;;5022852;28;20045;-73
2023/09/06 08:57:20;;;;;;;3.55;3.10;;;;;;;;;;5040530;28;20052;-74
2023/09/06 08:59:47;;;;;;;7.13;3.33;;;;;;;;;;5019579;28;20505;-74
2023/09/06 09:02:14;;;;;;;6.28;3.17;;;;;;;;;;5039474;28;20044;-74
2023/09/06 09:04:42;;;;;;;5.50;3.05;;;;;;;;;;5039853;28;21988;-74
2023/09/06 09:07:11;;;;;;;3.97;2.85;;;;;;;;;;5022581;28;20041;-74
2023/09/06 09:09:56;;;;;;;4.65;2.35;;;;;;;;;;5002698;28;20036;-74
2023/09/06 09:12:24;;;;;;;3.30;2.53;;;;;;;;;;5023100;28;20051;-74
2023/09/06 09:14:50;;;;;;;7.72;2.75;;;;;;;;;;5006104;28;20076;-75
2023/09/06 09:17:19;;;;;;;3.47;2.42;;;;;;;;;;5038648;28;20045;-74
2023/09/06 09:19:49;;;;;;;4.30;2.50;;;;;;;;;;5041043;28;20493;-74
2023/09/06 09:22:15;;;;;;;7.13;2.63;;;;;;;;;;5039174;28;20041;-74
2023/09/06 09:24:42;;;;;;;2.92;2.60;;;;;;;;;;5020374;28;20051;-74
2023/09/06 09:27:08;;;;;;;4.47;2.35;;;;;;;;;;5041109;28;20091;-74
2023/09/06 09:29:36;;;;;;;5.07;2.58;;;;;;;;;;5023171;28;20041;-74
2023/09/06 09:32:04;;;;;;;4.80;2.45;;;;;;;;;;5022943;28;21696;-74
2023/09/06 09:34:30;;;;;;;3.50;2.42;;;;;;;;;;5023127;28;20045;-74
2023/09/06 09:36:56;;;;;;;4.78;2.35;;;;;;;;;;5006114;28;20048;-74
2023/09/06 09:39:26;;;;;;;4.20;2.30;;;;;;;;;;5021058;28;20105;-74
2023/09/06 09:41:52;;;;;;;2.58;2.13;;;;;;;;;;5021277;28;20097;-74
2023/09/06 09:44:19;;;;;;;3.75;2.03;;;;;;;;;;5039714;28;20618;-74
2023/09/06 09:46:46;;;;;;;6.50;2.55;;;;;;;;;;5041728;28;20052;-78
2023/09/06 09:49:15;;;;;;;3.38;2.00;;;;;;;;;;5021734;28;20052;-78
2023/09/06 09:51:42;;;;;;;5.70;1.73;;;;;;;;;;5039787;28;20393;-78
2023/09/06 09:54:09;;;;;;;3.50;1.60;;;;;;;;;;5004486;28;20417;-78
2023/09/06 09:56:38;;;;;;;2.95;2.00;;;;;;;;;;5036634;28;20048;-79
2023/09/06 09:59:04;;;;;;;4.60;1.65;;;;;;;;;;5007256;28;20044;-80
2023/09/06 10:01:34;;;;;;;4.57;2.00;;;;;;;;;;4997969;28;20140;-80
2023/09/06 10:04:20;;;;;;;2.90;1.73;;;;;;;;;;5022837;28;20053;-80
2023/09/06 10:06:47;;;;;;;2.80;1.80;;;;;;;;;;5003967;28;20389;-80
2023/09/06 10:09:15;;;;;;;3.28;1.83;;;;;;;;;;5037535;28;20036;-80
2023/09/06 10:11:42;;;;;;;3.70;1.60;;;;;;;;;;5000630;28;20091;-80
2023/09/06 10:14:09;;;;;;;2.53;1.73;;;;;;;;;;5022597;28;20052;-80
2023/09/06 10:16:42;;;;;;;4.50;1.83;;;;;;;;;;5035747;28;20179;-80
2023/09/06 10:19:14;;;;;;;3.65;1.80;;;;;;;;;;4987028;28;20040;-79
2023/09/06 10:21:41;;;;;;;3.30;2.15;;;;;;;;;;5004764;28;20556;-80
2023/09/06 10:24:16;;;;;;;2.40;1.88;;;;;;;;;;5011990;28;20161;-80
2023/09/06 10:26:49;;;;;;;2.50;2.05;;;;;;;;;;5009302;28;20033;-79
2023/09/06 10:29:24;;;;;;;3.78;1.85;;;;;;;;;;5002267;28;20075;-79
2023/09/06 10:31:52;;;;;;;5.93;2.00;;;;;;;;;;5019086;28;20032;-79
2023/09/06 10:34:20;;;;;;;2.65;1.80;;;;;;;;;;4998029;28;20106;-79
2023/09/06 10:36:51;;;;;;;5.53;1.77;;;;;;;;;;4984021;28;20049;-79
2023/09/06 10:39:21;;;;;;;4.05;1.92;;;;;;;;;;5002433;28;20549;-79
2023/09/06 10:42:08;;;;;;;2.00;1.80;;;;;;;;;;5014721;28;20067;-79
2023/09/06 10:44:53;;;;;;;2.83;1.73;;;;;;;;;;4982545;28;20088;-75
2023/09/06 10:47:36;;;;;;;1.52;1.40;;;;;;;;;;4993341;28;20074;-77
2023/09/06 10:50:21;;;;;;;2.65;1.85;;;;;;;;;;4993129;28;20765;-76
2023/09/06 10:52:48;;;;;;;4.38;1.73;;;;;;;;;;4989144;28;20050;-77
2023/09/06 10:55:21;;;;;;;2.45;2.22;;;;;;;;;;4975137;28;20103;-77
2023/09/06 10:57:48;;;;;;;3.65;1.98;;;;;;;;;;4988352;28;20042;-77
2023/09/06 11:00:19;;;;;;;5.47;2.03;;;;;;;;;;5007828;28;20053;-78
2023/09/06 11:03:05;;;;;;;3.28;2.10;;;;;;;;;;4980815;28;20049;-77
2023/09/06 11:05:35;;;;;;;7.97;2.28;;;;;;;;;;4991322;28;20057;-78
2023/09/06 11:08:02;;;;;;;2.97;1.98;;;;;;;;;;4994644;28;20497;-78
2023/09/06 11:10:28;;;;;;;5.40;2.40;;;;;;;;;;4995982;28;20045;-78
2023/09/06 11:12:55;;;;;;;6.43;2.58;;;;;;;;;;4991654;28;20136;-77
2023/09/06 11:15:22;;;;;;;4.43;2.30;;;;;;;;;;4993010;28;20053;-76
2023/09/06 11:17:48;;;;;;;4.47;2.30;;;;;;;;;;4979895;28;20111;-76
2023/09/06 11:20:16;;;;;;;3.30;2.10;;;;;;;;;;4999197;28;20050;-76
2023/09/06 11:22:49;;;;;;;3.45;2.25;;;;;;;;;;5002266;28;20782;-76
2023/09/06 11:25:25;;;;;;;7.60;1.88;;;;;;;;;;4996103;28;20056;-77
2023/09/06 11:27:55;;;;;;;2.42;1.90;;;;;;;;;;5004488;28;20171;-76
2023/09/06 11:30:22;;;;;;;3.80;2.13;;;;;;;;;;4998443;28;20103;-76
2023/09/06 11:32:57;;;;;;;6.35;2.47;;;;;;;;;;4998665;28;20076;-76
2023/09/06 11:35:32;;;;;;;6.80;2.45;;;;;;;;;;4995345;28;21375;-76
2023/09/06 11:37:59;;;;;;;5.65;1.63;;;;;;;;;;5002982;28;20513;-76
2023/09/06 11:40:28;;;;;;;2.90;1.55;;;;;;;;;;4979750;28;20364;-76
2023/09/06 11:42:59;;;;;;;6.43;1.70;;;;;;;;;;4987707;28;20131;-74
2023/09/06 11:45:26;;;;;;;7.18;1.92;;;;;;;;;;5018556;28;20576;-75
2023/09/06 11:47:53;;;;;;;4.65;1.70;;;;;;;;;;5017612;28;20077;-75
2023/09/06 11:50:23;;;;;;;3.25;2.05;;;;;;;;;;5018511;28;20144;-75
2023/09/06 11:52:50;;;;;;;3.15;1.70;;;;;;;;;;5019618;28;20119;-74
2023/09/06 11:55:17;;;;;;;4.93;2.00;;;;;;;;;;5017144;28;20049;-74
2023/09/06 11:57:50;;;;;;;4.75;1.83;;;;;;;;;;5020517;28;20096;-75
2023/09/06 12:00:27;;;;;;;3.15;1.98;;;;;;;;;;5021305;28;20050;-75
2023/09/06 12:02:54;;;;;;;5.03;2.13;;;;;;;;;;5019708;28;20490;-76
2023/09/06 12:05:26;;;;;;;2.95;1.70;;;;;;;;;;5022000;28;20586;-75
2023/09/06 12:07:55;;;;;;;3.08;1.42;;;;;;;;;;5023766;28;20124;-75
2023/09/06 12:10:22;;;;;;;2.08;1.50;;;;;;;;;;5019498;28;20071;-74
2023/09/06 12:12:49;;;;;;;4.25;1.70;;;;;;;;;;5016788;28;20076;-74
2023/09/06 12:15:22;;;;;;;3.25;1.77;;;;;;;;;;5020616;28;20505;-75
2023/09/06 12:17:49;;;;;;;2.58;1.80;;;;;;;;;;5018552;28;20044;-75
2023/09/06 12:20:27;;;;;;;1.73;1.50;;;;;;;;;;5023216;28;20041;-75
2023/09/06 12:22:54;;;;;;;3.05;1.55;;;;;;;;;;5020565;28;20081;-75
2023/09/06 12:25:20;;;;;;;1.63;1.50;;;;;;;;;;5023795;28;20041;-75
2023/09/06 12:27:47;;;;;;;1.60;1.50;;;;;;;;;;5019567;28;20049;-75
2023/09/06 12:30:16;;;;;;;5.30;1.60;;;;;;;;;;5021069;28;20037;-75
2023/09/06 12:32:42;;;;;;;6.25;1.45;;;;;;;;;;5018174;28;22032;-75
2023/09/06 12:35:09;;;;;;;3.65;1.55;;;;;;;;;;5018993;28;20049;-75
2023/09/06 12:37:36;;;;;;;3.55;2.00;;;;;;;;;;5005594;28;20930;-75
2023/09/06 12:40:09;;;;;;;3.30;1.80;;;;;;;;;;5017374;28;20041;-75
2023/09/06 12:42:36;;;;;;;4.07;1.77;;;;;;;;;;5022493;28;20128;-76
2023/09/06 12:45:03;;;;;;;3.17;1.50;;;;;;;;;;5037033;28;20766;-75
2023/09/06 12:47:29;;;;;;;2.55;2.00;;;;;;;;;;5019713;28;20123;-75
2023/09/06 12:49:56;;;;;;;3.95;1.67;;;;;;;;;;5036649;28;20056;-75
2023/09/06 12:52:22;;;;;;;4.85;1.67;;;;;;;;;;5000372;28;20484;-75
2023/09/06 12:54:48;;;;;;;5.30;1.65;;;;;;;;;;5019814;28;20045;-75
2023/09/06 12:57:17;;;;;;;3.13;1.48;;;;;;;;;;5038283;28;20032;-74
2023/09/06 12:59:43;;;;;;;4.47;1.80;;;;;;;;;;5020042;28;20089;-74
2023/09/06 13:02:09;;;;;;;2.95;1.45;;;;;;;;;;5017529;28;20045;-74
2023/09/06 13:04:35;;;;;;;5.05;1.70;;;;;;;;;;5014556;28;20053;-75
2023/09/06 13:07:01;;;;;;;4.93;1.40;;;;;;;;;;5033528;28;20457;-74
2023/09/06 13:09:27;;;;;;;6.75;1.63;;;;;;;;;;5031705;28;20075;-75
2023/09/06 13:11:55;;;;;;;8.73;2.00;;;;;;;;;;5005649;28;20650;-75
2023/09/06 13:14:21;;;;;;;5.85;1.60;;;;;;;;;;5005409;28;20095;-75
2023/09/06 13:16:47;;;;;;;2.20;1.30;;;;;;;;;;5036412;28;20044;-75
2023/09/06 13:19:13;;;;;;;3.22;1.50;;;;;;;;;;5004203;28;20059;-74
2023/09/06 13:21:39;;;;;;;1.75;1.33;;;;;;;;;;5037206;28;20037;-75
2023/09/06 13:24:06;;;;;;;2.67;1.50;;;;;;;;;;5037017;28;20055;-75
2023/09/06 13:26:32;;;;;;;4.45;1.50;;;;;;;;;;5034268;28;20044;-75
2023/09/06 13:28:58;;;;;;;3.65;1.42;;;;;;;;;;5036169;28;20046;-75
2023/09/06 13:31:24;;;;;;;7.80;1.60;;;;;;;;;;5016773;28;20048;-75
2023/09/06 13:33:50;;;;;;;3.35;1.38;;;;;;;;;;5034449;28;20044;-75
2023/09/06 13:36:18;;;;;;;5.55;1.48;;;;;;;;;;5018733;28;20556;-74
2023/09/06 13:38:44;;;;;;;4.30;1.55;;;;;;;;;;5018119;28;20045;-74
2023/09/06 13:41:10;;;;;;;4.07;1.90;;;;;;;;;;4984093;28;21999;-74
2023/09/06 13:43:36;;;;;;;4.00;1.60;;;;;;;;;;5014275;28;20233;-74
2023/09/06 13:46:04;;;;;;;4.60;1.55;;;;;;;;;;5016330;28;20072;-75
2023/09/06 13:48:30;;;;;;;5.65;1.70;;;;;;;;;;5012602;28;20057;-75
2023/09/06 13:50:56;;;;;;;4.65;1.50;;;;;;;;;;5011842;28;20075;-74
2023/09/06 13:53:22;;;;;;;4.15;1.40;;;;;;;;;;5012551;28;21404;-75
2023/09/06 13:55:48;;;;;;;2.85;1.65;;;;;;;;;;5011930;28;20622;-75
2023/09/06 13:58:14;;;;;;;4.85;1.75;;;;;;;;;;5001385;28;20060;-75
2023/09/06 14:00:40;;;;;;;4.03;1.52;;;;;;;;;;5010967;28;20599;-75
2023/09/06 14:03:06;;;;;;;2.40;1.58;;;;;;;;;;5012715;28;20059;-75
2023/09/06 14:05:33;;;;;;;3.13;1.50;;;;;;;;;;5017039;28;20065;-74
2023/09/06 14:07:59;;;;;;;4.15;1.17;;;;;;;;;;5017342;28;20509;-82
2023/09/06 14:10:25;;;;;;;3.33;1.40;;;;;;;;;;5013413;28;20049;-75
2023/09/06 14:12:51;;;;;;;3.95;1.50;;;;;;;;;;5010499;28;20075;-75
2023/09/06 14:15:17;;;;;;;5.85;1.40;;;;;;;;;;5018769;28;20041;-75
2023/09/06 14:17:43;;;;;;;2.53;1.42;;;;;;;;;;5014712;28;20557;-75
2023/09/06 14:20:09;;;;;;;4.03;1.80;;;;;;;;;;5012749;28;20051;-75
2023/09/06 14:22:36;;;;;;;8.95;1.50;;;;;;;;;;5016177;28;20636;-75
2023/09/06 14:25:02;;;;;;;3.58;1.67;;;;;;;;;;4999970;28;20041;-76
2023/09/06 14:27:28;;;;;;;6.57;1.45;;;;;;;;;;5013733;28;20085;-76
2023/09/06 14:29:57;;;;;;;3.08;1.30;;;;;;;;;;5015222;28;20516;-75
2023/09/06 14:32:23;;;;;;;2.55;1.33;;;;;;;;;;5014842;28;20076;-76
2023/09/06 14:34:49;;;;;;;3.63;1.30;;;;;;;;;;5013021;28;20048;-76
2023/09/06 14:37:16;;;;;;;4.05;1.30;;;;;;;;;;5013076;28;20083;-77